Airport View

Enter AWOS ICAO identifier for current METAR.

ex. KFNL

KWYS 101555Z AUTO 00000KT 10SM CLR 15/04 A3025 RMK AO2

10 Aug 2020 16:15

Frequency: 118.1

Phone: (406) 646-7727

Other Area AWOS: KP60 - KEKS - KDIJ - KRXE

TAF KBZN 101120Z 1012/1118 VRB05KT P6SM SKC